sensor_id;sensor_type;location;lat;lon;timestamp;P1;durP1;ratioP1;P2;durP2;ratioP2
24631;SDS011;59977;48.782;9.190;2023-04-15T00:01:52;14.95;;;4.20;;
24631;SDS011;59977;48.782;9.190;2023-04-15T00:04:17;14.95;;;4.05;;
24631;SDS011;59977;48.782;9.190;2023-04-15T00:06:49;14.98;;;4.00;;
24631;SDS011;59977;48.782;9.190;2023-04-15T00:09:16;13.68;;;4.20;;
24631;SDS011;59977;48.782;9.190;2023-04-15T00:11:43;9.15;;;4.40;;
24631;SDS011;59977;48.782;9.190;2023-04-15T00:14:09;12.27;;;4.15;;
24631;SDS011;59977;48.782;9.190;2023-04-15T00:16:36;12.55;;;4.07;;
24631;SDS011;59977;48.782;9.190;2023-04-15T00:19:02;17.98;;;4.45;;
24631;SDS011;59977;48.782;9.190;2023-04-15T00:21:28;10.00;;;3.90;;
24631;SDS011;59977;48.782;9.190;2023-04-15T00:23:54;10.30;;;3.78;;
24631;SDS011;59977;48.782;9.190;2023-04-15T00:26:20;15.50;;;5.25;;
24631;SDS011;59977;48.782;9.190;2023-04-15T00:28:46;13.07;;;4.43;;
24631;SDS011;59977;48.782;9.190;2023-04-15T00:31:12;15.77;;;4.13;;
24631;SDS011;59977;48.782;9.190;2023-04-15T00:33:39;16.52;;;4.22;;
24631;SDS011;59977;48.782;9.190;2023-04-15T00:36:05;10.00;;;3.60;;
24631;SDS011;59977;48.782;9.190;2023-04-15T00:38:32;11.38;;;4.15;;
24631;SDS011;59977;48.782;9.190;2023-04-15T00:40:58;12.68;;;4.00;;
24631;SDS011;59977;48.782;9.190;2023-04-15T00:43:24;9.25;;;3.83;;
24631;SDS011;59977;48.782;9.190;2023-04-15T00:45:50;11.23;;;3.85;;
24631;SDS011;59977;48.782;9.190;2023-04-15T00:48:16;10.85;;;3.80;;
24631;SDS011;59977;48.782;9.190;2023-04-15T00:50:42;11.15;;;3.92;;
24631;SDS011;59977;48.782;9.190;2023-04-15T00:53:08;7.05;;;3.33;;
24631;SDS011;59977;48.782;9.190;2023-04-15T00:55:34;11.70;;;3.67;;
24631;SDS011;59977;48.782;9.190;2023-04-15T00:58:00;12.20;;;3.50;;
24631;SDS011;59977;48.782;9.190;2023-04-15T01:00:26;10.23;;;3.70;;
24631;SDS011;59977;48.782;9.190;2023-04-15T01:02:53;12.75;;;3.13;;
24631;SDS011;59977;48.782;9.190;2023-04-15T01:05:18;11.13;;;3.42;;
24631;SDS011;59977;48.782;9.190;2023-04-15T01:07:45;7.65;;;3.20;;
24631;SDS011;59977;48.782;9.190;2023-04-15T01:10:11;11.13;;;3.95;;
24631;SDS011;59977;48.782;9.190;2023-04-15T01:12:37;8.85;;;3.17;;
24631;SDS011;59977;48.782;9.190;2023-04-15T01:15:04;11.70;;;3.67;;
24631;SDS011;59977;48.782;9.190;2023-04-15T01:17:30;7.57;;;3.40;;
24631;SDS011;59977;48.782;9.190;2023-04-15T01:19:56;11.40;;;3.38;;
24631;SDS011;59977;48.782;9.190;2023-04-15T01:22:23;11.90;;;3.47;;
24631;SDS011;59977;48.782;9.190;2023-04-15T01:24:54;9.35;;;3.35;;
24631;SDS011;59977;48.782;9.190;2023-04-15T01:27:26;13.75;;;3.75;;
24631;SDS011;59977;48.782;9.190;2023-04-15T01:29:52;10.90;;;3.38;;
24631;SDS011;59977;48.782;9.190;2023-04-15T01:32:18;10.25;;;3.45;;
24631;SDS011;59977;48.782;9.190;2023-04-15T01:34:44;11.13;;;3.88;;
24631;SDS011;59977;48.782;9.190;2023-04-15T01:37:10;14.23;;;4.00;;
24631;SDS011;59977;48.782;9.190;2023-04-15T01:39:36;13.50;;;3.80;;
24631;SDS011;59977;48.782;9.190;2023-04-15T01:42:03;7.07;;;3.17;;
24631;SDS011;59977;48.782;9.190;2023-04-15T01:44:29;8.93;;;3.25;;
24631;SDS011;59977;48.782;9.190;2023-04-15T01:46:55;9.35;;;3.35;;
24631;SDS011;59977;48.782;9.190;2023-04-15T01:49:21;8.70;;;3.63;;
24631;SDS011;59977;48.782;9.190;2023-04-15T01:51:47;9.40;;;3.20;;
24631;SDS011;59977;48.782;9.190;2023-04-15T01:54:14;9.20;;;3.28;;
24631;SDS011;59977;48.782;9.190;2023-04-15T01:56:40;21.10;;;4.28;;
24631;SDS011;59977;48.782;9.190;2023-04-15T01:59:06;10.18;;;3.42;;
24631;SDS011;59977;48.782;9.190;2023-04-15T02:01:32;10.45;;;3.58;;
24631;SDS011;59977;48.782;9.190;2023-04-15T02:03:58;8.02;;;3.22;;
24631;SDS011;59977;48.782;9.190;2023-04-15T02:06:24;16.23;;;3.45;;
24631;SDS011;59977;48.782;9.190;2023-04-15T02:08:52;11.85;;;4.05;;
24631;SDS011;59977;48.782;9.190;2023-04-15T02:11:18;12.30;;;3.38;;
24631;SDS011;59977;48.782;9.190;2023-04-15T02:13:44;11.30;;;3.95;;
24631;SDS011;59977;48.782;9.190;2023-04-15T02:16:17;10.00;;;4.00;;
24631;SDS011;59977;48.782;9.190;2023-04-15T02:18:46;12.40;;;3.80;;
24631;SDS011;59977;48.782;9.190;2023-04-15T02:21:12;11.85;;;3.45;;
24631;SDS011;59977;48.782;9.190;2023-04-15T02:23:37;12.38;;;3.65;;
24631;SDS011;59977;48.782;9.190;2023-04-15T02:26:03;19.27;;;3.45;;
24631;SDS011;59977;48.782;9.190;2023-04-15T02:28:29;16.67;;;4.40;;
24631;SDS011;59977;48.782;9.190;2023-04-15T02:30:55;8.60;;;3.33;;
24631;SDS011;59977;48.782;9.190;2023-04-15T02:33:23;8.80;;;3.22;;
24631;SDS011;59977;48.782;9.190;2023-04-15T02:35:49;13.27;;;3.75;;
24631;SDS011;59977;48.782;9.190;2023-04-15T02:38:17;9.25;;;3.55;;
24631;SDS011;59977;48.782;9.190;2023-04-15T02:40:42;8.75;;;3.67;;
24631;SDS011;59977;48.782;9.190;2023-04-15T02:43:08;11.18;;;3.25;;
24631;SDS011;59977;48.782;9.190;2023-04-15T02:45:34;10.45;;;3.42;;
24631;SDS011;59977;48.782;9.190;2023-04-15T02:48:00;10.82;;;3.83;;
24631;SDS011;59977;48.782;9.190;2023-04-15T02:50:30;14.93;;;3.65;;
24631;SDS011;59977;48.782;9.190;2023-04-15T02:52:55;8.93;;;3.58;;
24631;SDS011;59977;48.782;9.190;2023-04-15T02:55:21;9.13;;;3.40;;
24631;SDS011;59977;48.782;9.190;2023-04-15T02:57:47;17.58;;;3.55;;
24631;SDS011;59977;48.782;9.190;2023-04-15T03:00:13;10.65;;;3.35;;
24631;SDS011;59977;48.782;9.190;2023-04-15T03:02:40;13.13;;;3.88;;
24631;SDS011;59977;48.782;9.190;2023-04-15T03:05:10;8.75;;;3.63;;
24631;SDS011;59977;48.782;9.190;2023-04-15T03:07:36;14.02;;;3.13;;
24631;SDS011;59977;48.782;9.190;2023-04-15T03:10:02;9.82;;;3.10;;
24631;SDS011;59977;48.782;9.190;2023-04-15T03:12:28;8.77;;;3.60;;
24631;SDS011;59977;48.782;9.190;2023-04-15T03:14:54;10.68;;;3.42;;
24631;SDS011;59977;48.782;9.190;2023-04-15T03:17:20;13.00;;;3.35;;
24631;SDS011;59977;48.782;9.190;2023-04-15T03:19:46;6.45;;;3.03;;
24631;SDS011;59977;48.782;9.190;2023-04-15T03:22:12;7.32;;;2.85;;
24631;SDS011;59977;48.782;9.190;2023-04-15T03:24:38;7.25;;;3.72;;
24631;SDS011;59977;48.782;9.190;2023-04-15T03:27:04;15.48;;;3.90;;
24631;SDS011;59977;48.782;9.190;2023-04-15T03:29:32;11.32;;;4.03;;
24631;SDS011;59977;48.782;9.190;2023-04-15T03:31:58;16.75;;;5.25;;
24631;SDS011;59977;48.782;9.190;2023-04-15T03:34:24;11.70;;;4.20;;
24631;SDS011;59977;48.782;9.190;2023-04-15T03:36:50;13.68;;;4.03;;
24631;SDS011;59977;48.782;9.190;2023-04-15T03:39:16;10.65;;;3.80;;
24631;SDS011;59977;48.782;9.190;2023-04-15T03:41:42;10.18;;;4.55;;
24631;SDS011;59977;48.782;9.190;2023-04-15T03:44:08;10.45;;;4.97;;
24631;SDS011;59977;48.782;9.190;2023-04-15T03:46:34;15.15;;;4.47;;
24631;SDS011;59977;48.782;9.190;2023-04-15T03:49:00;9.13;;;4.15;;
24631;SDS011;59977;48.782;9.190;2023-04-15T03:51:26;14.13;;;4.25;;
24631;SDS011;59977;48.782;9.190;2023-04-15T03:53:52;11.60;;;3.90;;
24631;SDS011;59977;48.782;9.190;2023-04-15T03:56:18;12.35;;;4.60;;
24631;SDS011;59977;48.782;9.190;2023-04-15T03:58:44;14.32;;;4.45;;
24631;SDS011;59977;48.782;9.190;2023-04-15T04:01:10;12.35;;;4.60;;
24631;SDS011;59977;48.782;9.190;2023-04-15T04:03:36;10.23;;;4.68;;
24631;SDS011;59977;48.782;9.190;2023-04-15T04:06:02;15.77;;;4.85;;
24631;SDS011;59977;48.782;9.190;2023-04-15T04:08:28;14.00;;;4.88;;
24631;SDS011;59977;48.782;9.190;2023-04-15T04:10:54;14.32;;;4.78;;
24631;SDS011;59977;48.782;9.190;2023-04-15T04:13:20;12.07;;;4.25;;
24631;SDS011;59977;48.782;9.190;2023-04-15T04:15:46;15.13;;;4.65;;
24631;SDS011;59977;48.782;9.190;2023-04-15T04:18:12;15.00;;;5.03;;
24631;SDS011;59977;48.782;9.190;2023-04-15T04:20:38;11.30;;;4.70;;
24631;SDS011;59977;48.782;9.190;2023-04-15T04:23:04;13.55;;;4.90;;
24631;SDS011;59977;48.782;9.190;2023-04-15T04:25:30;20.70;;;5.35;;
24631;SDS011;59977;48.782;9.190;2023-04-15T04:27:57;20.23;;;5.50;;
24631;SDS011;59977;48.782;9.190;2023-04-15T04:30:23;20.15;;;5.25;;
24631;SDS011;59977;48.782;9.190;2023-04-15T04:32:48;13.10;;;4.93;;
24631;SDS011;59977;48.782;9.190;2023-04-15T04:35:15;18.15;;;5.93;;
24631;SDS011;59977;48.782;9.190;2023-04-15T04:37:41;14.43;;;5.28;;
24631;SDS011;59977;48.782;9.190;2023-04-15T04:40:07;17.00;;;5.45;;
24631;SDS011;59977;48.782;9.190;2023-04-15T04:42:34;17.88;;;5.88;;
24631;SDS011;59977;48.782;9.190;2023-04-15T04:45:00;15.02;;;5.30;;
24631;SDS011;59977;48.782;9.190;2023-04-15T04:47:26;14.70;;;5.40;;
24631;SDS011;59977;48.782;9.190;2023-04-15T04:49:52;19.33;;;5.72;;
24631;SDS011;59977;48.782;9.190;2023-04-15T04:52:17;17.77;;;5.93;;
24631;SDS011;59977;48.782;9.190;2023-04-15T04:54:43;12.23;;;5.75;;
24631;SDS011;59977;48.782;9.190;2023-04-15T04:57:09;16.52;;;5.15;;
24631;SDS011;59977;48.782;9.190;2023-04-15T04:59:37;13.65;;;5.85;;
24631;SDS011;59977;48.782;9.190;2023-04-15T05:02:03;11.13;;;4.93;;
24631;SDS011;59977;48.782;9.190;2023-04-15T05:04:29;17.42;;;5.82;;
24631;SDS011;59977;48.782;9.190;2023-04-15T05:06:58;20.85;;;4.97;;
24631;SDS011;59977;48.782;9.190;2023-04-15T05:09:24;11.40;;;4.97;;
24631;SDS011;59977;48.782;9.190;2023-04-15T05:11:50;11.40;;;5.57;;
24631;SDS011;59977;48.782;9.190;2023-04-15T05:14:16;16.15;;;5.85;;
24631;SDS011;59977;48.782;9.190;2023-04-15T05:16:42;15.23;;;5.50;;
24631;SDS011;59977;48.782;9.190;2023-04-15T05:19:08;12.48;;;5.50;;
24631;SDS011;59977;48.782;9.190;2023-04-15T05:21:34;16.15;;;5.45;;
24631;SDS011;59977;48.782;9.190;2023-04-15T05:24:00;13.18;;;5.03;;
24631;SDS011;59977;48.782;9.190;2023-04-15T05:26:26;14.50;;;4.78;;
24631;SDS011;59977;48.782;9.190;2023-04-15T05:28:52;12.27;;;4.22;;
24631;SDS011;59977;48.782;9.190;2023-04-15T05:31:19;16.98;;;4.22;;
24631;SDS011;59977;48.782;9.190;2023-04-15T05:33:44;13.35;;;3.42;;
24631;SDS011;59977;48.782;9.190;2023-04-15T05:36:10;8.88;;;3.17;;
24631;SDS011;59977;48.782;9.190;2023-04-15T05:38:37;8.20;;;3.17;;
24631;SDS011;59977;48.782;9.190;2023-04-15T05:41:03;8.73;;;4.25;;
24631;SDS011;59977;48.782;9.190;2023-04-15T05:43:29;10.98;;;3.05;;
24631;SDS011;59977;48.782;9.190;2023-04-15T05:45:55;11.30;;;3.50;;
24631;SDS011;59977;48.782;9.190;2023-04-15T05:48:21;10.77;;;3.50;;
24631;SDS011;59977;48.782;9.190;2023-04-15T05:50:47;11.68;;;3.10;;
24631;SDS011;59977;48.782;9.190;2023-04-15T05:53:13;16.77;;;3.90;;
24631;SDS011;59977;48.782;9.190;2023-04-15T05:55:39;11.60;;;3.35;;
24631;SDS011;59977;48.782;9.190;2023-04-15T05:58:05;16.00;;;3.50;;
24631;SDS011;59977;48.782;9.190;2023-04-15T06:00:31;11.82;;;3.40;;
24631;SDS011;59977;48.782;9.190;2023-04-15T06:02:57;9.93;;;3.35;;
24631;SDS011;59977;48.782;9.190;2023-04-15T06:05:23;21.98;;;3.20;;
24631;SDS011;59977;48.782;9.190;2023-04-15T06:07:49;10.00;;;3.38;;
24631;SDS011;59977;48.782;9.190;2023-04-15T06:10:15;12.80;;;3.20;;
24631;SDS011;59977;48.782;9.190;2023-04-15T06:12:41;10.68;;;3.22;;
24631;SDS011;59977;48.782;9.190;2023-04-15T06:15:07;13.18;;;3.35;;
24631;SDS011;59977;48.782;9.190;2023-04-15T06:17:36;12.60;;;3.65;;
24631;SDS011;59977;48.782;9.190;2023-04-15T06:20:02;15.38;;;3.63;;
24631;SDS011;59977;48.782;9.190;2023-04-15T06:22:28;7.68;;;3.10;;
24631;SDS011;59977;48.782;9.190;2023-04-15T06:24:54;10.65;;;4.60;;
24631;SDS011;59977;48.782;9.190;2023-04-15T06:27:20;14.68;;;5.03;;
24631;SDS011;59977;48.782;9.190;2023-04-15T06:29:47;15.70;;;5.32;;
24631;SDS011;59977;48.782;9.190;2023-04-15T06:32:13;14.32;;;5.80;;
24631;SDS011;59977;48.782;9.190;2023-04-15T06:34:39;19.00;;;6.18;;
24631;SDS011;59977;48.782;9.190;2023-04-15T06:37:05;13.55;;;4.75;;
24631;SDS011;59977;48.782;9.190;2023-04-15T06:39:31;15.23;;;5.20;;
24631;SDS011;59977;48.782;9.190;2023-04-15T06:41:57;20.10;;;5.40;;
24631;SDS011;59977;48.782;9.190;2023-04-15T06:44:23;17.98;;;5.40;;
24631;SDS011;59977;48.782;9.190;2023-04-15T06:46:49;12.23;;;4.72;;
24631;SDS011;59977;48.782;9.190;2023-04-15T06:49:15;10.70;;;4.82;;
24631;SDS011;59977;48.782;9.190;2023-04-15T06:51:41;14.95;;;4.80;;
24631;SDS011;59977;48.782;9.190;2023-04-15T06:54:07;10.23;;;4.47;;
24631;SDS011;59977;48.782;9.190;2023-04-15T06:56:33;14.73;;;4.35;;
24631;SDS011;59977;48.782;9.190;2023-04-15T06:58:59;13.82;;;4.50;;
24631;SDS011;59977;48.782;9.190;2023-04-15T07:01:26;8.88;;;3.88;;
24631;SDS011;59977;48.782;9.190;2023-04-15T07:03:52;11.60;;;4.53;;
24631;SDS011;59977;48.782;9.190;2023-04-15T07:06:18;10.77;;;4.75;;
24631;SDS011;59977;48.782;9.190;2023-04-15T07:08:44;13.57;;;4.85;;
24631;SDS011;59977;48.782;9.190;2023-04-15T07:11:10;11.80;;;4.40;;
24631;SDS011;59977;48.782;9.190;2023-04-15T07:13:36;12.15;;;4.18;;
24631;SDS011;59977;48.782;9.190;2023-04-15T07:16:02;14.55;;;4.75;;
24631;SDS011;59977;48.782;9.190;2023-04-15T07:18:28;15.57;;;4.80;;
24631;SDS011;59977;48.782;9.190;2023-04-15T07:20:54;11.15;;;4.40;;
24631;SDS011;59977;48.782;9.190;2023-04-15T07:23:20;11.55;;;4.43;;
24631;SDS011;59977;48.782;9.190;2023-04-15T07:25:46;11.68;;;4.80;;
24631;SDS011;59977;48.782;9.190;2023-04-15T07:28:12;12.32;;;4.43;;
24631;SDS011;59977;48.782;9.190;2023-04-15T07:30:38;10.95;;;4.40;;
24631;SDS011;59977;48.782;9.190;2023-04-15T07:33:04;9.30;;;4.25;;
24631;SDS011;59977;48.782;9.190;2023-04-15T07:35:30;11.90;;;4.50;;
24631;SDS011;59977;48.782;9.190;2023-04-15T07:37:57;11.48;;;4.55;;
24631;SDS011;59977;48.782;9.190;2023-04-15T07:40:23;12.93;;;4.35;;
24631;SDS011;59977;48.782;9.190;2023-04-15T07:42:49;8.90;;;4.50;;
24631;SDS011;59977;48.782;9.190;2023-04-15T07:45:15;11.00;;;3.80;;
24631;SDS011;59977;48.782;9.190;2023-04-15T07:47:41;12.35;;;4.45;;
24631;SDS011;59977;48.782;9.190;2023-04-15T07:50:08;11.55;;;4.40;;
24631;SDS011;59977;48.782;9.190;2023-04-15T07:52:35;12.02;;;4.43;;
24631;SDS011;59977;48.782;9.190;2023-04-15T07:55:04;12.68;;;4.28;;
24631;SDS011;59977;48.782;9.190;2023-04-15T07:57:31;11.35;;;4.53;;
24631;SDS011;59977;48.782;9.190;2023-04-15T07:59:56;9.80;;;4.57;;
24631;SDS011;59977;48.782;9.190;2023-04-15T08:02:22;10.38;;;4.10;;
24631;SDS011;59977;48.782;9.190;2023-04-15T08:04:49;19.00;;;4.47;;
24631;SDS011;59977;48.782;9.190;2023-04-15T08:07:15;17.90;;;4.30;;
24631;SDS011;59977;48.782;9.190;2023-04-15T08:09:40;12.93;;;4.03;;
24631;SDS011;59977;48.782;9.190;2023-04-15T08:12:06;11.85;;;4.00;;
24631;SDS011;59977;48.782;9.190;2023-04-15T08:14:33;12.00;;;4.05;;
24631;SDS011;59977;48.782;9.190;2023-04-15T08:17:00;13.43;;;4.00;;
24631;SDS011;59977;48.782;9.190;2023-04-15T08:20:05;11.27;;;4.03;;
24631;SDS011;59977;48.782;9.190;2023-04-15T08:22:31;13.23;;;4.40;;
24631;SDS011;59977;48.782;9.190;2023-04-15T08:24:58;13.18;;;4.63;;
24631;SDS011;59977;48.782;9.190;2023-04-15T08:27:24;11.90;;;4.35;;
24631;SDS011;59977;48.782;9.190;2023-04-15T08:29:59;10.13;;;3.80;;
24631;SDS011;59977;48.782;9.190;2023-04-15T08:32:35;8.15;;;3.90;;
24631;SDS011;59977;48.782;9.190;2023-04-15T08:35:00;12.10;;;4.20;;
24631;SDS011;59977;48.782;9.190;2023-04-15T08:37:26;12.57;;;3.95;;
24631;SDS011;59977;48.782;9.190;2023-04-15T08:39:52;9.95;;;4.32;;
24631;SDS011;59977;48.782;9.190;2023-04-15T08:42:18;9.05;;;3.83;;
24631;SDS011;59977;48.782;9.190;2023-04-15T08:44:50;8.48;;;3.83;;
24631;SDS011;59977;48.782;9.190;2023-04-15T08:47:17;11.40;;;4.10;;
24631;SDS011;59977;48.782;9.190;2023-04-15T08:49:45;8.70;;;3.97;;
24631;SDS011;59977;48.782;9.190;2023-04-15T08:52:17;7.63;;;3.75;;
24631;SDS011;59977;48.782;9.190;2023-04-15T08:54:43;11.27;;;3.67;;
24631;SDS011;59977;48.782;9.190;2023-04-15T08:57:09;13.90;;;4.45;;
24631;SDS011;59977;48.782;9.190;2023-04-15T08:59:35;9.18;;;3.80;;
24631;SDS011;59977;48.782;9.190;2023-04-15T09:02:01;15.50;;;4.05;;
24631;SDS011;59977;48.782;9.190;2023-04-15T09:04:27;11.63;;;4.15;;
24631;SDS011;59977;48.782;9.190;2023-04-15T09:06:53;10.52;;;3.97;;
24631;SDS011;59977;48.782;9.190;2023-04-15T09:09:19;13.98;;;4.53;;
24631;SDS011;59977;48.782;9.190;2023-04-15T09:11:45;10.95;;;4.05;;
24631;SDS011;59977;48.782;9.190;2023-04-15T09:14:10;9.43;;;3.95;;
24631;SDS011;59977;48.782;9.190;2023-04-15T09:19:27;12.82;;;4.22;;
24631;SDS011;59977;48.782;9.190;2023-04-15T09:21:54;10.05;;;3.53;;
24631;SDS011;59977;48.782;9.190;2023-04-15T09:24:21;9.23;;;3.70;;
24631;SDS011;59977;48.782;9.190;2023-04-15T09:26:47;12.25;;;3.80;;
24631;SDS011;59977;48.782;9.190;2023-04-15T09:29:13;8.55;;;3.75;;
24631;SDS011;59977;48.782;9.190;2023-04-15T09:31:39;8.30;;;3.53;;
24631;SDS011;59977;48.782;9.190;2023-04-15T09:34:06;7.28;;;2.83;;
24631;SDS011;59977;48.782;9.190;2023-04-15T09:36:37;7.70;;;2.22;;
24631;SDS011;59977;48.782;9.190;2023-04-15T09:39:17;6.95;;;2.17;;
24631;SDS011;59977;48.782;9.190;2023-04-15T09:41:43;3.67;;;1.90;;
24631;SDS011;59977;48.782;9.190;2023-04-15T09:44:22;7.32;;;3.15;;
24631;SDS011;59977;48.782;9.190;2023-04-15T09:46:51;8.90;;;2.90;;
24631;SDS011;59977;48.782;9.190;2023-04-15T09:49:17;4.97;;;2.47;;
24631;SDS011;59977;48.782;9.190;2023-04-15T09:51:43;11.52;;;3.08;;
24631;SDS011;59977;48.782;9.190;2023-04-15T09:54:09;6.93;;;2.72;;
24631;SDS011;59977;48.782;9.190;2023-04-15T09:56:35;9.80;;;2.65;;
24631;SDS011;59977;48.782;9.190;2023-04-15T09:59:04;6.95;;;2.65;;
24631;SDS011;59977;48.782;9.190;2023-04-15T10:01:30;6.20;;;2.47;;
24631;SDS011;59977;48.782;9.190;2023-04-15T10:03:56;9.25;;;2.30;;
24631;SDS011;59977;48.782;9.190;2023-04-15T10:06:25;7.97;;;2.20;;
24631;SDS011;59977;48.782;9.190;2023-04-15T10:08:51;6.28;;;2.22;;
24631;SDS011;59977;48.782;9.190;2023-04-15T10:11:20;6.38;;;2.10;;
24631;SDS011;59977;48.782;9.190;2023-04-15T10:13:48;4.63;;;1.98;;
24631;SDS011;59977;48.782;9.190;2023-04-15T10:16:15;8.52;;;2.63;;
24631;SDS011;59977;48.782;9.190;2023-04-15T10:18:42;10.68;;;2.35;;
24631;SDS011;59977;48.782;9.190;2023-04-15T10:21:09;9.20;;;2.58;;
24631;SDS011;59977;48.782;9.190;2023-04-15T10:23:35;7.07;;;2.10;;
24631;SDS011;59977;48.782;9.190;2023-04-15T10:26:03;8.45;;;2.13;;
24631;SDS011;59977;48.782;9.190;2023-04-15T10:28:29;10.50;;;2.53;;
24631;SDS011;59977;48.782;9.190;2023-04-15T10:30:55;11.80;;;3.03;;
24631;SDS011;59977;48.782;9.190;2023-04-15T10:33:22;8.60;;;3.08;;
24631;SDS011;59977;48.782;9.190;2023-04-15T10:35:49;10.00;;;2.20;;
24631;SDS011;59977;48.782;9.190;2023-04-15T10:46:15;7.78;;;3.30;;
24631;SDS011;59977;48.782;9.190;2023-04-15T10:48:47;7.70;;;2.92;;
24631;SDS011;59977;48.782;9.190;2023-04-15T10:51:14;6.75;;;2.10;;
24631;SDS011;59977;48.782;9.190;2023-04-15T10:53:40;7.30;;;2.33;;
24631;SDS011;59977;48.782;9.190;2023-04-15T10:56:07;9.57;;;2.47;;
24631;SDS011;59977;48.782;9.190;2023-04-15T10:58:43;10.00;;;2.63;;
24631;SDS011;59977;48.782;9.190;2023-04-15T11:01:09;10.00;;;2.20;;
24631;SDS011;59977;48.782;9.190;2023-04-15T11:03:36;6.35;;;2.42;;
24631;SDS011;59977;48.782;9.190;2023-04-15T11:06:03;8.85;;;2.47;;
24631;SDS011;59977;48.782;9.190;2023-04-15T11:09:16;8.82;;;2.60;;
24631;SDS011;59977;48.782;9.190;2023-04-15T11:11:17;6.25;;;2.67;;
24631;SDS011;59977;48.782;9.190;2023-04-15T11:13:46;6.15;;;2.55;;
24631;SDS011;59977;48.782;9.190;2023-04-15T11:16:13;7.82;;;2.90;;
24631;SDS011;59977;48.782;9.190;2023-04-15T11:18:39;9.05;;;3.10;;
24631;SDS011;59977;48.782;9.190;2023-04-15T11:21:05;9.23;;;2.70;;
24631;SDS011;59977;48.782;9.190;2023-04-15T11:23:38;6.88;;;2.90;;
24631;SDS011;59977;48.782;9.190;2023-04-15T11:26:07;11.20;;;3.17;;
24631;SDS011;59977;48.782;9.190;2023-04-15T11:28:35;10.57;;;2.85;;
24631;SDS011;59977;48.782;9.190;2023-04-15T11:31:05;5.82;;;3.30;;
24631;SDS011;59977;48.782;9.190;2023-04-15T11:33:34;7.47;;;2.75;;
24631;SDS011;59977;48.782;9.190;2023-04-15T11:36:00;7.30;;;2.35;;
24631;SDS011;59977;48.782;9.190;2023-04-15T11:38:28;7.13;;;2.75;;
24631;SDS011;59977;48.782;9.190;2023-04-15T11:40:55;12.88;;;2.60;;
24631;SDS011;59977;48.782;9.190;2023-04-15T11:43:22;5.55;;;2.22;;
24631;SDS011;59977;48.782;9.190;2023-04-15T11:45:49;8.95;;;3.05;;
24631;SDS011;59977;48.782;9.190;2023-04-15T11:48:15;12.45;;;3.38;;
24631;SDS011;59977;48.782;9.190;2023-04-15T11:50:42;8.57;;;2.50;;
24631;SDS011;59977;48.782;9.190;2023-04-15T11:53:09;9.02;;;2.47;;
24631;SDS011;59977;48.782;9.190;2023-04-15T11:55:45;13.18;;;2.80;;
24631;SDS011;59977;48.782;9.190;2023-04-15T12:03:21;5.35;;;2.03;;
24631;SDS011;59977;48.782;9.190;2023-04-15T12:06:07;9.43;;;2.60;;
24631;SDS011;59977;48.782;9.190;2023-04-15T12:11:32;10.60;;;2.72;;
24631;SDS011;59977;48.782;9.190;2023-04-15T12:14:01;6.90;;;2.80;;
24631;SDS011;59977;48.782;9.190;2023-04-15T12:16:58;9.00;;;2.90;;
24631;SDS011;59977;48.782;9.190;2023-04-15T12:19:39;12.35;;;3.00;;
24631;SDS011;59977;48.782;9.190;2023-04-15T12:22:10;21.98;;;2.95;;
24631;SDS011;59977;48.782;9.190;2023-04-15T12:24:37;6.35;;;2.70;;
24631;SDS011;59977;48.782;9.190;2023-04-15T12:29:30;10.48;;;3.05;;
24631;SDS011;59977;48.782;9.190;2023-04-15T12:31:57;11.35;;;2.90;;
24631;SDS011;59977;48.782;9.190;2023-04-15T12:34:30;9.13;;;2.90;;
24631;SDS011;59977;48.782;9.190;2023-04-15T12:36:56;13.27;;;2.70;;
24631;SDS011;59977;48.782;9.190;2023-04-15T12:39:23;7.53;;;2.70;;
24631;SDS011;59977;48.782;9.190;2023-04-15T12:41:50;8.77;;;3.53;;
24631;SDS011;59977;48.782;9.190;2023-04-15T12:44:16;8.05;;;2.88;;
24631;SDS011;59977;48.782;9.190;2023-04-15T12:46:42;7.03;;;3.25;;
24631;SDS011;59977;48.782;9.190;2023-04-15T12:49:08;6.15;;;2.55;;
24631;SDS011;59977;48.782;9.190;2023-04-15T12:51:34;7.68;;;2.97;;
24631;SDS011;59977;48.782;9.190;2023-04-15T12:54:00;5.15;;;2.63;;
24631;SDS011;59977;48.782;9.190;2023-04-15T12:56:26;5.10;;;2.55;;
24631;SDS011;59977;48.782;9.190;2023-04-15T12:58:52;6.90;;;2.75;;
24631;SDS011;59977;48.782;9.190;2023-04-15T13:01:18;5.50;;;2.55;;
24631;SDS011;59977;48.782;9.190;2023-04-15T13:03:44;4.40;;;2.50;;
24631;SDS011;59977;48.782;9.190;2023-04-15T13:06:10;19.15;;;2.95;;
24631;SDS011;59977;48.782;9.190;2023-04-15T13:08:36;4.97;;;2.35;;
24631;SDS011;59977;48.782;9.190;2023-04-15T13:11:02;7.95;;;2.90;;
24631;SDS011;59977;48.782;9.190;2023-04-15T13:13:28;3.78;;;2.10;;
24631;SDS011;59977;48.782;9.190;2023-04-15T13:15:56;4.32;;;1.92;;
24631;SDS011;59977;48.782;9.190;2023-04-15T13:18:22;7.00;;;2.10;;
24631;SDS011;59977;48.782;9.190;2023-04-15T13:20:48;3.15;;;1.98;;
24631;SDS011;59977;48.782;9.190;2023-04-15T13:23:14;5.85;;;1.90;;
24631;SDS011;59977;48.782;9.190;2023-04-15T13:25:40;5.60;;;2.25;;
24631;SDS011;59977;48.782;9.190;2023-04-15T13:28:07;9.27;;;2.40;;
24631;SDS011;59977;48.782;9.190;2023-04-15T13:30:33;5.32;;;1.90;;
24631;SDS011;59977;48.782;9.190;2023-04-15T13:32:59;6.70;;;2.25;;
24631;SDS011;59977;48.782;9.190;2023-04-15T13:35:25;6.65;;;2.10;;
24631;SDS011;59977;48.782;9.190;2023-04-15T13:37:52;6.30;;;2.25;;
24631;SDS011;59977;48.782;9.190;2023-04-15T13:40:19;4.68;;;2.00;;
24631;SDS011;59977;48.782;9.190;2023-04-15T13:42:45;4.95;;;1.50;;
24631;SDS011;59977;48.782;9.190;2023-04-15T13:45:11;4.72;;;1.83;;
24631;SDS011;59977;48.782;9.190;2023-04-15T13:47:37;4.65;;;1.40;;
24631;SDS011;59977;48.782;9.190;2023-04-15T13:50:03;3.33;;;1.40;;
24631;SDS011;59977;48.782;9.190;2023-04-15T13:52:30;3.05;;;0.95;;
24631;SDS011;59977;48.782;9.190;2023-04-15T13:54:56;3.95;;;1.33;;
24631;SDS011;59977;48.782;9.190;2023-04-15T13:57:21;3.00;;;1.10;;
24631;SDS011;59977;48.782;9.190;2023-04-15T13:59:47;6.15;;;1.30;;
24631;SDS011;59977;48.782;9.190;2023-04-15T14:02:13;3.17;;;1.33;;
24631;SDS011;59977;48.782;9.190;2023-04-15T14:04:39;6.30;;;2.13;;
24631;SDS011;59977;48.782;9.190;2023-04-15T14:07:05;3.65;;;1.20;;
24631;SDS011;59977;48.782;9.190;2023-04-15T14:09:31;6.25;;;1.90;;
24631;SDS011;59977;48.782;9.190;2023-04-15T14:11:57;1.98;;;1.08;;
24631;SDS011;59977;48.782;9.190;2023-04-15T14:14:24;5.07;;;1.40;;
24631;SDS011;59977;48.782;9.190;2023-04-15T14:16:50;3.33;;;1.10;;
24631;SDS011;59977;48.782;9.190;2023-04-15T14:19:16;2.40;;;1.17;;
24631;SDS011;59977;48.782;9.190;2023-04-15T14:21:42;3.20;;;0.90;;
24631;SDS011;59977;48.782;9.190;2023-04-15T14:24:08;4.00;;;1.00;;
24631;SDS011;59977;48.782;9.190;2023-04-15T14:26:34;2.05;;;1.15;;
24631;SDS011;59977;48.782;9.190;2023-04-15T14:29:00;6.05;;;1.33;;
24631;SDS011;59977;48.782;9.190;2023-04-15T14:31:26;1.88;;;1.00;;
24631;SDS011;59977;48.782;9.190;2023-04-15T14:33:51;2.67;;;1.20;;
24631;SDS011;59977;48.782;9.190;2023-04-15T14:36:17;6.80;;;1.20;;
24631;SDS011;59977;48.782;9.190;2023-04-15T14:38:43;6.57;;;1.13;;
24631;SDS011;59977;48.782;9.190;2023-04-15T14:41:09;3.40;;;1.25;;
24631;SDS011;59977;48.782;9.190;2023-04-15T14:43:36;3.28;;;1.40;;
24631;SDS011;59977;48.782;9.190;2023-04-15T14:46:02;3.75;;;1.08;;
24631;SDS011;59977;48.782;9.190;2023-04-15T14:48:28;2.95;;;1.15;;
24631;SDS011;59977;48.782;9.190;2023-04-15T14:50:55;3.15;;;1.23;;
24631;SDS011;59977;48.782;9.190;2023-04-15T14:53:21;4.97;;;1.38;;
24631;SDS011;59977;48.782;9.190;2023-04-15T14:55:47;1.88;;;1.13;;
24631;SDS011;59977;48.782;9.190;2023-04-15T14:58:13;5.05;;;1.13;;
24631;SDS011;59977;48.782;9.190;2023-04-15T15:00:40;3.28;;;1.30;;